6B9

Skaneateles Aero Drome Airport

Skaneateles, New York, USA
METAR K6B9 160535Z AUTO 21006KT 10SM OVC024 M02/M06 A2992 RMK AO2
Observed Flight Rules
Jan-16 @ 05:35 UTC (17 minutes ago) Marginal Visual Flight Rules
Wind Visibility Clouds
210° at 6 knots 10 miles
  • Overcast at 2,400' AGL
Temperatures Readings
Current -2°C / 28°F
Dewpoint -6°C / 21°F
Humidity 74%
Altimeter 29.92" Hg
Pressure 1013.22 hPa
Elevation 316
METAR K6B9 160535Z AUTO 21006KT 10SM OVC024 M02/M06 A2992 RMK AO2
Observed Flight Rules
Jan-16 @ 05:35 UTC
(17 minutes ago)
MVFR
Wind Visibility
210° at 6 knots 10 miles
Clouds
  • Overcast at 2,400' AGL
Temperature Dewpoint
-2°C / 28°F -6°C / 21°F
Humidity Altimeter Pressure
74% 29.92" Hg 1013.22 hPa